createdAt,value
2022-08-11T00:01:16.512Z,22.70
2022-08-11T00:05:04.277Z,22.60
2022-08-11T00:08:51.230Z,22.50
2022-08-11T00:12:33.407Z,22.40
2022-08-11T00:16:24.836Z,22.40
2022-08-11T00:20:13.260Z,22.30
2022-08-11T00:24:00.437Z,22.20
2022-08-11T00:27:43.270Z,22.10
2022-08-11T00:31:31.974Z,22.00
2022-08-11T00:35:53.645Z,22.00
2022-08-11T00:39:29.031Z,21.80
2022-08-11T00:43:23.962Z,21.70
2022-08-11T00:47:55.863Z,21.70
2022-08-11T00:52:09.704Z,21.50
2022-08-11T00:56:10.334Z,21.40
2022-08-11T01:00:13.421Z,21.30
2022-08-11T01:04:32.735Z,21.20
2022-08-11T01:08:42.240Z,21.10
2022-08-11T01:12:39.894Z,21.00
2022-08-11T01:16:46.617Z,20.90
2022-08-11T01:21:05.195Z,20.80
2022-08-11T01:24:46.977Z,20.70
2022-08-11T01:29:05.543Z,20.70
2022-08-11T01:32:53.148Z,20.60
2022-08-11T01:36:56.991Z,20.60
2022-08-11T01:40:53.880Z,20.50
2022-08-11T01:45:09.795Z,20.40
2022-08-11T01:50:06.494Z,20.30
2022-08-11T01:53:35.665Z,20.30
2022-08-11T01:57:34.423Z,20.20
2022-08-11T02:01:24.569Z,20.10
2022-08-11T02:05:14.017Z,20.00
2022-08-11T02:09:28.847Z,20.00
2022-08-11T02:13:39.948Z,19.90
2022-08-11T02:17:55.780Z,19.90
2022-08-11T02:22:13.500Z,19.90
2022-08-11T02:26:05.964Z,19.90
2022-08-11T02:30:18.474Z,19.80
2022-08-11T02:34:22.690Z,19.80
2022-08-11T02:38:19.627Z,19.80
2022-08-11T02:42:35.265Z,19.70
2022-08-11T02:46:34.221Z,19.60
2022-08-11T02:50:26.596Z,19.50
2022-08-11T02:54:29.336Z,19.50
2022-08-11T02:58:27.161Z,19.50
2022-08-11T03:02:16.723Z,19.50
2022-08-11T03:06:05.002Z,19.40
2022-08-11T03:10:05.020Z,19.30
2022-08-11T03:14:30.627Z,19.30
2022-08-11T03:18:34.725Z,19.20
2022-08-11T03:22:49.859Z,19.10
2022-08-11T03:27:02.544Z,19.10
2022-08-11T03:30:54.397Z,19.00
2022-08-11T03:34:39.481Z,19.00
2022-08-11T03:38:30.562Z,18.90
2022-08-11T03:42:21.925Z,18.80
2022-08-11T03:46:35.980Z,18.70
2022-08-11T03:50:24.891Z,18.60
2022-08-11T03:54:24.625Z,18.60
2022-08-11T03:58:18.583Z,18.40
2022-08-11T04:02:22.373Z,18.40
2022-08-11T04:06:28.672Z,18.30
2022-08-11T04:10:10.537Z,18.30
2022-08-11T04:14:46.906Z,18.20
2022-08-11T04:18:50.311Z,18.10
2022-08-11T04:22:44.373Z,18.00
2022-08-11T04:26:29.478Z,17.90
2022-08-11T04:30:29.837Z,17.80
2022-08-11T04:34:44.382Z,17.70
2022-08-11T04:38:46.191Z,17.60
2022-08-11T04:43:08.313Z,17.60
2022-08-11T04:47:01.842Z,17.50
2022-08-11T04:51:37.653Z,17.50
2022-08-11T04:56:07.690Z,17.40
2022-08-11T05:00:19.786Z,17.30
2022-08-11T05:04:45.936Z,17.30
2022-08-11T05:08:46.253Z,17.20
2022-08-11T05:12:31.120Z,17.10
2022-08-11T05:16:34.900Z,17.00
2022-08-11T05:20:35.342Z,17.00
2022-08-11T05:24:42.948Z,16.90
2022-08-11T05:28:53.608Z,16.90
2022-08-11T05:33:03.806Z,16.80
2022-08-11T05:36:52.030Z,16.70
2022-08-11T05:40:53.289Z,16.70
2022-08-11T05:45:04.468Z,16.70
2022-08-11T05:49:15.995Z,16.70
2022-08-11T05:53:17.758Z,16.70
2022-08-11T05:57:01.876Z,16.70
2022-08-11T06:00:46.442Z,16.70
2022-08-11T06:04:29.511Z,16.70
2022-08-11T06:08:13.701Z,16.70
2022-08-11T06:11:59.722Z,16.70
2022-08-11T06:15:50.696Z,16.70
2022-08-11T06:19:47.071Z,16.70
2022-08-11T06:23:33.665Z,16.70
2022-08-11T06:27:22.536Z,16.80
2022-08-11T06:31:25.799Z,16.80
2022-08-11T06:35:13.509Z,16.80
2022-08-11T06:39:23.219Z,16.80
2022-08-11T06:43:19.657Z,16.80
2022-08-11T06:47:08.953Z,16.90
2022-08-11T06:51:12.539Z,17.00
2022-08-11T06:54:58.085Z,17.20
2022-08-11T06:59:00.028Z,17.30
2022-08-11T07:03:09.164Z,17.50
2022-08-11T07:07:29.365Z,17.70
2022-08-11T07:11:51.133Z,17.80
2022-08-11T07:16:09.107Z,17.90
2022-08-11T07:20:17.471Z,18.00
2022-08-11T07:24:21.006Z,18.20
2022-08-11T07:28:46.823Z,18.40
2022-08-11T07:32:36.625Z,18.50
2022-08-11T07:36:19.028Z,18.60
2022-08-11T07:40:02.451Z,18.80
2022-08-11T07:43:49.123Z,18.80
2022-08-11T07:47:50.170Z,18.90
2022-08-11T07:51:50.492Z,19.00
2022-08-11T07:55:50.750Z,19.10
2022-08-11T08:00:00.610Z,19.20
2022-08-11T08:04:05.951Z,19.40
2022-08-11T08:08:07.248Z,19.50
2022-08-11T08:12:08.716Z,19.60
2022-08-11T08:16:11.144Z,19.70
2022-08-11T08:19:53.387Z,19.80
2022-08-11T08:23:35.302Z,19.90
2022-08-11T08:27:18.591Z,20.00
2022-08-11T08:31:01.416Z,20.10
2022-08-11T08:34:43.982Z,20.20
2022-08-11T08:38:25.855Z,20.30
2022-08-11T08:42:11.841Z,20.40
2022-08-11T08:45:57.504Z,20.50
2022-08-11T08:49:49.266Z,20.70
2022-08-11T08:53:35.920Z,20.90
2022-08-11T08:57:20.032Z,21.00
2022-08-11T09:01:02.939Z,21.10
2022-08-11T09:04:46.934Z,21.20
2022-08-11T09:08:31.780Z,21.30
2022-08-11T09:12:14.313Z,21.40
2022-08-11T09:15:56.581Z,21.50
2022-08-11T09:19:38.891Z,21.60
2022-08-11T09:24:07.980Z,21.70
2022-08-11T09:27:42.009Z,21.80
2022-08-11T09:31:39.661Z,21.90
2022-08-11T09:35:22.443Z,22.00
2022-08-11T09:39:24.552Z,22.10
2022-08-11T09:43:28.995Z,22.20
2022-08-11T09:47:15.596Z,22.50
2022-08-11T09:51:00.453Z,22.70
2022-08-11T09:54:43.565Z,22.90
2022-08-11T09:58:41.601Z,23.60
2022-08-11T10:02:30.277Z,24.90
2022-08-11T10:06:34.284Z,26.50
2022-08-11T10:10:22.854Z,27.90
2022-08-11T10:14:33.429Z,29.40
2022-08-11T10:18:42.470Z,30.60
2022-08-11T10:22:43.539Z,32.00
2022-08-11T10:26:47.981Z,33.20
2022-08-11T10:30:48.475Z,34.10
2022-08-11T10:34:31.257Z,35.00
2022-08-11T10:38:15.795Z,35.80
2022-08-11T10:42:30.037Z,36.50
2022-08-11T10:46:35.820Z,37.10
2022-08-11T10:50:36.288Z,37.90
2022-08-11T10:54:36.976Z,38.30
2022-08-11T10:58:37.809Z,38.90
2022-08-11T11:02:20.186Z,39.40
2022-08-11T11:06:29.894Z,39.90
2022-08-11T11:10:12.168Z,40.40
2022-08-11T11:14:13.049Z,40.90
2022-08-11T11:18:12.076Z,41.20
2022-08-11T11:22:15.812Z,41.70
2022-08-11T11:26:34.848Z,42.20
2022-08-11T11:30:17.796Z,42.70
2022-08-11T11:34:18.370Z,43.20
2022-08-11T11:38:04.919Z,43.50
2022-08-11T11:41:49.744Z,43.90
2022-08-11T11:45:32.039Z,44.20
2022-08-11T11:49:17.511Z,44.50
2022-08-11T11:53:01.996Z,44.70
2022-08-11T11:56:45.571Z,44.90
2022-08-11T12:00:48.872Z,45.20
2022-08-11T12:04:31.308Z,45.30
2022-08-11T12:08:17.735Z,45.50
2022-08-11T12:12:18.324Z,45.70
2022-08-11T12:16:31.803Z,45.90
2022-08-11T12:20:32.021Z,46.20
2022-08-11T12:24:29.768Z,46.50
2022-08-11T12:28:12.861Z,46.70
2022-08-11T12:31:55.943Z,47.00
2022-08-11T12:35:37.886Z,47.40
2022-08-11T12:40:16.975Z,47.60
2022-08-11T12:44:07.009Z,47.80
2022-08-11T12:48:57.489Z,48.10
2022-08-11T12:52:24.015Z,48.10
2022-08-11T12:56:26.188Z,48.30
2022-08-11T13:00:28.689Z,48.40
2022-08-11T13:04:29.261Z,48.40
2022-08-11T13:08:11.745Z,48.60
2022-08-11T13:12:12.248Z,48.70
2022-08-11T13:15:54.965Z,48.60
2022-08-11T13:19:37.276Z,48.80
2022-08-11T13:23:20.146Z,48.90
2022-08-11T13:27:03.096Z,49.00
2022-08-11T13:31:04.534Z,48.90
2022-08-11T13:34:47.303Z,49.00
2022-08-11T13:38:31.139Z,49.20
2022-08-11T13:42:16.366Z,49.10
2022-08-11T13:46:18.584Z,49.00
2022-08-11T13:50:02.214Z,49.00
2022-08-11T13:53:44.135Z,48.90
2022-08-11T13:58:08.124Z,48.90
2022-08-11T14:02:22.508Z,48.90
2022-08-11T14:05:58.348Z,49.00
2022-08-11T14:09:43.619Z,48.90
2022-08-11T14:13:42.547Z,49.00
2022-08-11T14:17:47.020Z,49.00
2022-08-11T14:21:54.120Z,49.00
2022-08-11T14:25:59.842Z,49.00
2022-08-11T14:29:42.484Z,48.80
2022-08-11T14:33:58.546Z,48.80
2022-08-11T14:37:39.024Z,48.50
2022-08-11T14:42:10.115Z,48.00
2022-08-11T14:46:00.620Z,47.20
2022-08-11T14:49:58.296Z,45.90
2022-08-11T14:53:58.382Z,44.50
2022-08-11T14:57:55.273Z,43.40
2022-08-11T15:01:57.407Z,42.50
2022-08-11T15:05:53.692Z,41.90
2022-08-11T15:10:09.831Z,41.40
2022-08-11T15:13:45.132Z,40.90
2022-08-11T15:17:32.325Z,40.40
2022-08-11T15:21:43.805Z,40.10
2022-08-11T15:25:27.660Z,39.80
2022-08-11T15:29:30.533Z,39.60
2022-08-11T15:33:35.554Z,39.40
2022-08-11T15:37:26.393Z,39.20
2022-08-11T15:41:28.064Z,39.10
2022-08-11T15:45:29.160Z,38.90
2022-08-11T15:49:10.924Z,38.90
2022-08-11T15:53:42.891Z,38.80
2022-08-11T15:57:47.981Z,38.70
2022-08-11T16:01:50.260Z,38.70
2022-08-11T16:05:45.706Z,38.60
2022-08-11T16:09:47.433Z,38.50
2022-08-11T16:13:32.856Z,38.40
2022-08-11T16:17:17.521Z,38.30
2022-08-11T16:21:01.057Z,38.20
2022-08-11T16:26:38.768Z,38.20
2022-08-11T16:28:49.312Z,38.20
2022-08-11T16:32:33.524Z,38.00
2022-08-11T16:36:34.435Z,38.00
2022-08-11T16:40:17.712Z,37.90
2022-08-11T16:44:18.432Z,37.90
2022-08-11T16:48:36.324Z,37.80
2022-08-11T16:52:18.487Z,37.70
2022-08-11T16:56:03.876Z,37.60
2022-08-11T16:59:46.434Z,37.50
2022-08-11T17:03:48.614Z,37.40
2022-08-11T17:07:49.307Z,37.20
2022-08-11T17:11:52.581Z,37.00
2022-08-11T17:16:00.318Z,37.00
2022-08-11T17:20:42.019Z,36.90
2022-08-11T17:24:08.955Z,36.80
2022-08-11T17:27:52.627Z,36.70
2022-08-11T17:31:52.848Z,36.60
2022-08-11T17:35:39.323Z,36.50
2022-08-11T17:39:29.228Z,36.40
2022-08-11T17:43:30.165Z,36.40
2022-08-11T17:47:31.688Z,36.30
2022-08-11T17:51:38.542Z,36.20
2022-08-11T17:55:51.679Z,36.10
2022-08-11T17:59:53.103Z,36.00
2022-08-11T18:03:39.935Z,35.90
2022-08-11T18:07:43.484Z,35.80
2022-08-11T18:12:10.942Z,35.70
2022-08-11T18:16:07.500Z,35.60
2022-08-11T18:20:09.547Z,35.40
2022-08-11T18:24:11.988Z,35.40
2022-08-11T18:28:14.785Z,35.30
2022-08-11T18:32:21.111Z,35.10
2022-08-11T18:36:25.688Z,35.00
2022-08-11T18:40:34.989Z,34.90
2022-08-11T18:44:37.751Z,34.80
2022-08-11T18:52:49.688Z,34.60
2022-08-11T18:56:51.306Z,34.50
2022-08-11T19:00:54.668Z,34.30
2022-08-11T19:04:57.446Z,34.20
2022-08-11T19:09:05.017Z,34.10
2022-08-11T19:13:06.220Z,34.00
2022-08-11T19:17:08.841Z,33.80
2022-08-11T19:21:10.816Z,33.70
2022-08-11T19:25:13.691Z,33.50
2022-08-11T19:30:07.981Z,33.30
2022-08-11T19:34:00.139Z,33.10
2022-08-11T19:37:58.704Z,32.90
2022-08-11T19:42:00.403Z,32.70
2022-08-11T19:46:02.147Z,32.50
2022-08-11T19:50:03.662Z,32.40
2022-08-11T19:54:06.426Z,32.20
2022-08-11T19:58:08.427Z,32.10
2022-08-11T20:02:13.294Z,32.00
2022-08-11T20:06:21.460Z,31.80
2022-08-11T20:10:24.868Z,31.70
2022-08-11T20:14:28.196Z,31.40
2022-08-11T20:18:31.224Z,31.20
2022-08-11T20:22:34.398Z,31.00
2022-08-11T20:26:35.349Z,30.80
2022-08-11T20:30:35.984Z,30.70
2022-08-11T20:34:36.663Z,30.50
2022-08-11T20:38:40.708Z,30.30
2022-08-11T20:42:44.563Z,30.00
2022-08-11T20:46:46.914Z,29.70
2022-08-11T20:50:49.643Z,29.40
2022-08-11T20:54:53.404Z,29.20
2022-08-11T20:59:17.826Z,29.10
2022-08-11T21:03:15.347Z,28.80
2022-08-11T21:07:39.299Z,28.70
2022-08-11T21:11:43.178Z,28.50
2022-08-11T21:16:03.140Z,28.30
2022-08-11T21:20:15.613Z,28.20
2022-08-11T21:24:21.555Z,28.00
2022-08-11T21:28:26.579Z,27.90
2022-08-11T21:32:28.464Z,27.80
2022-08-11T21:36:29.188Z,27.60
2022-08-11T21:40:30.749Z,27.40
2022-08-11T21:44:32.252Z,27.20
2022-08-11T21:48:32.889Z,27.10
2022-08-11T21:52:33.705Z,26.90
2022-08-11T21:56:35.207Z,26.60
2022-08-11T22:00:36.006Z,26.50
2022-08-11T22:04:38.805Z,26.40
2022-08-11T22:08:39.336Z,26.40
2022-08-11T22:12:44.189Z,26.40
2022-08-11T22:16:45.710Z,26.30
2022-08-11T22:20:46.982Z,26.30
2022-08-11T22:24:48.531Z,26.20
2022-08-11T22:28:49.117Z,26.20
2022-08-11T22:32:49.924Z,26.10
2022-08-11T22:36:53.434Z,26.00
2022-08-11T22:40:55.460Z,26.00
2022-08-11T22:44:56.917Z,25.90
2022-08-11T22:48:59.540Z,25.90
2022-08-11T22:53:01.036Z,25.70
2022-08-11T22:57:01.832Z,25.60
2022-08-11T23:01:02.588Z,25.50
2022-08-11T23:05:03.483Z,25.40
2022-08-11T23:09:04.547Z,25.40
2022-08-11T23:13:04.927Z,25.30
2022-08-11T23:17:06.416Z,25.20
2022-08-11T23:21:07.695Z,25.00
2022-08-11T23:25:08.366Z,24.90
2022-08-11T23:29:18.481Z,24.80
2022-08-11T23:33:21.319Z,24.60
2022-08-11T23:37:22.740Z,24.50
2022-08-11T23:41:23.958Z,24.40
2022-08-11T23:45:24.992Z,24.30
2022-08-11T23:49:26.368Z,24.20
2022-08-11T23:53:27.699Z,24.10
2022-08-11T23:57:28.234Z,23.90
